createdAt,value
2019-05-25T00:01:18.380Z,16.62
2019-05-25T00:03:45.070Z,16.82
2019-05-25T00:06:11.772Z,17.32
2019-05-25T00:08:38.660Z,17.23
2019-05-25T00:11:05.335Z,16.42
2019-05-25T00:13:32.101Z,16.02
2019-05-25T00:15:58.923Z,16.25
2019-05-25T00:18:25.616Z,16.82
2019-05-25T00:20:52.291Z,17.17
2019-05-25T00:23:19.077Z,17.12
2019-05-25T00:25:45.843Z,17.73
2019-05-25T00:28:12.502Z,17.00
2019-05-25T00:30:39.439Z,16.35
2019-05-25T00:33:06.218Z,17.20
2019-05-25T00:35:33.235Z,17.23
2019-05-25T00:38:00.151Z,16.05
2019-05-25T00:40:26.930Z,17.17
2019-05-25T00:42:53.707Z,17.55
2019-05-25T00:45:20.773Z,17.55
2019-05-25T00:47:47.456Z,16.75
2019-05-25T00:50:14.153Z,16.87
2019-05-25T00:52:44.147Z,17.67
2019-05-25T00:55:11.124Z,17.57
2019-05-25T00:57:39.002Z,17.55
2019-05-25T01:00:06.645Z,17.35
2019-05-25T01:02:34.211Z,18.07
2019-05-25T01:05:00.903Z,17.10
2019-05-25T01:07:28.959Z,17.42
2019-05-25T01:09:55.747Z,16.40
2019-05-25T01:12:22.419Z,17.05
2019-05-25T01:14:49.165Z,17.15
2019-05-25T01:17:15.833Z,17.23
2019-05-25T01:19:42.511Z,17.77
2019-05-25T01:22:09.303Z,17.40
2019-05-25T01:24:44.202Z,17.07
2019-05-25T01:27:04.578Z,17.37
2019-05-25T01:29:31.343Z,17.40
2019-05-25T01:31:58.010Z,17.55
2019-05-25T01:34:24.756Z,18.17
2019-05-25T01:36:51.521Z,17.40
2019-05-25T01:39:19.337Z,17.90
2019-05-25T01:41:46.012Z,18.07
2019-05-25T01:44:12.745Z,17.67
2019-05-25T01:46:39.442Z,18.23
2019-05-25T01:49:06.287Z,17.48
2019-05-25T01:51:33.045Z,17.15
2019-05-25T01:53:59.777Z,18.32
2019-05-25T01:56:26.562Z,17.62
2019-05-25T01:58:53.386Z,16.95
2019-05-25T02:01:20.054Z,18.48
2019-05-25T02:03:46.841Z,18.23
2019-05-25T02:06:13.736Z,17.73
2019-05-25T02:08:40.525Z,17.82
2019-05-25T02:11:07.193Z,17.02
2019-05-25T02:13:33.947Z,17.23
2019-05-25T02:16:00.648Z,17.65
2019-05-25T02:18:27.463Z,17.60
2019-05-25T02:20:54.179Z,17.32
2019-05-25T02:23:20.890Z,17.27
2019-05-25T02:25:47.946Z,17.05
2019-05-25T02:28:14.675Z,18.17
2019-05-25T02:30:41.360Z,17.35
2019-05-25T02:33:08.123Z,17.15
2019-05-25T02:35:35.880Z,17.40
2019-05-25T02:38:02.717Z,17.65
2019-05-25T02:40:29.448Z,17.30
2019-05-25T02:42:56.334Z,17.85
2019-05-25T02:45:23.300Z,17.90
2019-05-25T02:47:50.142Z,17.45
2019-05-25T02:50:17.112Z,17.37
2019-05-25T02:52:43.842Z,16.70
2019-05-25T02:55:11.448Z,16.37
2019-05-25T02:57:38.234Z,16.97
2019-05-25T03:00:08.765Z,16.50
2019-05-25T03:02:35.537Z,16.85
2019-05-25T03:05:08.547Z,16.42
2019-05-25T03:07:37.611Z,17.17
2019-05-25T03:10:06.110Z,16.65
2019-05-25T03:12:32.963Z,15.60
2019-05-25T03:14:59.663Z,17.07
2019-05-25T03:17:26.423Z,16.32
2019-05-25T03:19:53.376Z,16.12
2019-05-25T03:22:20.115Z,16.12
2019-05-25T03:24:46.895Z,16.75
2019-05-25T03:27:13.642Z,17.07
2019-05-25T03:29:40.481Z,16.45
2019-05-25T03:32:07.252Z,16.05
2019-05-25T03:34:34.003Z,15.80
2019-05-25T03:37:00.700Z,16.45
2019-05-25T03:39:27.372Z,14.90
2019-05-25T03:41:54.207Z,15.98
2019-05-25T03:44:21.345Z,16.52
2019-05-25T03:46:48.142Z,16.05
2019-05-25T03:49:14.875Z,15.58
2019-05-25T03:51:42.616Z,15.50
2019-05-25T03:54:09.297Z,15.93
2019-05-25T03:56:36.072Z,15.15
2019-05-25T03:59:03.043Z,16.17
2019-05-25T04:01:29.823Z,15.75
2019-05-25T04:03:56.586Z,15.58
2019-05-25T04:06:23.425Z,14.35
2019-05-25T04:08:50.288Z,15.78
2019-05-25T04:11:17.149Z,14.65
2019-05-25T04:13:44.086Z,12.40
2019-05-25T04:16:10.760Z,17.12
2019-05-25T04:18:37.540Z,13.62
2019-05-25T04:21:04.321Z,13.60
2019-05-25T04:23:31.234Z,13.00
2019-05-25T04:25:58.205Z,11.43
2019-05-25T04:28:24.904Z,10.78
2019-05-25T04:30:51.672Z,10.13
2019-05-25T04:33:18.508Z,9.48
2019-05-25T04:35:45.223Z,6.97
2019-05-25T04:38:12.086Z,7.30
2019-05-25T04:40:39.123Z,7.47
2019-05-25T04:43:05.910Z,7.05
2019-05-25T04:45:32.863Z,6.85
2019-05-25T04:47:59.600Z,6.80
2019-05-25T04:50:26.361Z,7.53
2019-05-25T04:52:53.067Z,6.25
2019-05-25T04:55:21.119Z,6.30
2019-05-25T04:57:47.803Z,6.42
2019-05-25T05:00:14.821Z,5.75
2019-05-25T05:02:41.606Z,5.60
2019-05-25T05:05:08.469Z,5.03
2019-05-25T05:07:35.158Z,4.90
2019-05-25T05:10:07.502Z,4.55
2019-05-25T05:12:34.254Z,5.20
2019-05-25T05:15:00.952Z,4.65
2019-05-25T05:17:27.784Z,5.10
2019-05-25T05:19:54.502Z,5.15
2019-05-25T05:22:21.267Z,5.10
2019-05-25T05:24:48.343Z,5.03
2019-05-25T05:27:15.084Z,4.90
2019-05-25T05:29:41.776Z,4.65
2019-05-25T05:32:08.754Z,4.55
2019-05-25T05:34:35.513Z,5.08
2019-05-25T05:37:02.838Z,4.72
2019-05-25T05:39:30.748Z,12.55
2019-05-25T05:41:59.362Z,7.70
2019-05-25T05:44:27.137Z,4.45
2019-05-25T05:46:56.297Z,4.12
2019-05-25T05:49:23.833Z,4.58
2019-05-25T05:51:53.261Z,4.75
2019-05-25T05:54:20.472Z,4.55
2019-05-25T05:56:47.830Z,4.70
2019-05-25T05:59:14.554Z,4.30
2019-05-25T06:01:41.305Z,4.62
2019-05-25T06:04:08.096Z,5.10
2019-05-25T06:06:34.848Z,4.70
2019-05-25T06:09:01.660Z,7.37
2019-05-25T06:11:28.554Z,4.50
2019-05-25T06:13:55.336Z,4.47
2019-05-25T06:16:22.083Z,4.80
2019-05-25T06:18:48.846Z,4.78
2019-05-25T06:21:15.757Z,4.58
2019-05-25T06:23:42.571Z,4.67
2019-05-25T06:26:09.261Z,4.40
2019-05-25T06:28:36.020Z,4.10
2019-05-25T06:31:02.892Z,4.60
2019-05-25T06:33:29.713Z,4.12
2019-05-25T06:35:56.643Z,4.55
2019-05-25T06:38:23.407Z,5.10
2019-05-25T06:40:50.208Z,3.85
2019-05-25T06:43:17.180Z,4.12
2019-05-25T06:45:43.962Z,3.70
2019-05-25T06:48:10.706Z,3.60
2019-05-25T06:50:37.403Z,3.65
2019-05-25T06:53:04.327Z,4.25
2019-05-25T06:55:31.010Z,3.83
2019-05-25T06:57:57.792Z,4.08
2019-05-25T07:00:24.911Z,4.22
2019-05-25T07:02:51.594Z,3.87
2019-05-25T07:05:18.407Z,3.75
2019-05-25T07:07:45.125Z,4.10
2019-05-25T07:10:12.739Z,4.20
2019-05-25T07:12:39.431Z,3.27
2019-05-25T07:15:07.296Z,3.55
2019-05-25T07:17:33.991Z,4.10
2019-05-25T07:20:00.705Z,3.60
2019-05-25T07:22:27.691Z,3.37
2019-05-25T07:24:54.390Z,3.65
2019-05-25T07:27:21.143Z,3.70
2019-05-25T07:29:48.006Z,3.67
2019-05-25T07:32:14.751Z,4.37
2019-05-25T07:34:41.686Z,4.33
2019-05-25T07:37:08.408Z,4.05
2019-05-25T07:39:35.135Z,3.98
2019-05-25T07:42:01.946Z,5.80
2019-05-25T07:44:28.786Z,5.03
2019-05-25T07:46:55.590Z,23.98
2019-05-25T07:49:22.328Z,24.57
2019-05-25T07:51:50.235Z,5.70
2019-05-25T07:54:17.093Z,5.22
2019-05-25T07:56:43.866Z,5.65
2019-05-25T07:59:10.695Z,5.65
2019-05-25T08:01:37.415Z,6.00
2019-05-25T08:04:04.339Z,5.40
2019-05-25T08:06:31.087Z,5.60
2019-05-25T08:08:58.178Z,5.97
2019-05-25T08:11:24.914Z,5.37
2019-05-25T08:13:51.680Z,4.60
2019-05-25T08:16:18.433Z,5.03
2019-05-25T08:18:45.119Z,4.78
2019-05-25T08:21:11.878Z,4.92
2019-05-25T08:23:38.601Z,4.80
2019-05-25T08:26:05.504Z,4.72
2019-05-25T08:28:33.320Z,4.50
2019-05-25T08:31:01.416Z,4.25
2019-05-25T08:33:28.482Z,4.15
2019-05-25T08:35:55.238Z,3.77
2019-05-25T08:38:21.986Z,4.20
2019-05-25T08:40:48.797Z,4.17
2019-05-25T08:43:15.638Z,4.08
2019-05-25T08:45:42.356Z,3.58
2019-05-25T08:48:09.122Z,3.80
2019-05-25T08:50:38.700Z,3.90
2019-05-25T08:53:04.507Z,4.10
2019-05-25T08:55:31.359Z,3.70
2019-05-25T08:57:58.496Z,4.17
2019-05-25T09:00:25.193Z,3.77
2019-05-25T09:02:51.927Z,3.80
2019-05-25T09:05:18.943Z,3.50
2019-05-25T09:07:45.705Z,4.42
2019-05-25T09:10:12.891Z,4.10
2019-05-25T09:12:39.634Z,3.65
2019-05-25T09:15:07.218Z,3.45
2019-05-25T09:17:33.903Z,3.33
2019-05-25T09:20:00.672Z,3.42
2019-05-25T09:22:27.382Z,3.33
2019-05-25T09:24:54.108Z,3.70
2019-05-25T09:27:20.873Z,3.25
2019-05-25T09:29:47.628Z,3.58
2019-05-25T09:32:14.336Z,3.65
2019-05-25T09:34:41.071Z,3.47
2019-05-25T09:37:07.873Z,3.90
2019-05-25T09:39:34.649Z,3.80
2019-05-25T09:42:01.568Z,3.30
2019-05-25T09:44:28.282Z,3.40
2019-05-25T09:46:54.961Z,3.15
2019-05-25T09:49:21.857Z,3.40
2019-05-25T09:51:48.829Z,3.27
2019-05-25T09:54:15.570Z,3.58
2019-05-25T09:56:42.405Z,3.58
2019-05-25T09:59:19.764Z,3.30
2019-05-25T10:01:37.840Z,3.47
2019-05-25T10:04:04.598Z,3.30
2019-05-25T10:06:31.276Z,3.20
2019-05-25T10:08:57.998Z,3.05
2019-05-25T10:11:24.763Z,3.20
2019-05-25T10:13:51.534Z,2.60
2019-05-25T10:16:18.311Z,2.70
2019-05-25T10:18:45.067Z,3.15
2019-05-25T10:21:14.783Z,2.87
2019-05-25T10:23:40.445Z,2.98
2019-05-25T10:26:07.217Z,2.92
2019-05-25T10:28:33.911Z,3.00
2019-05-25T10:31:00.939Z,2.67
2019-05-25T10:33:27.875Z,2.47
2019-05-25T10:35:54.573Z,3.02
2019-05-25T10:38:21.409Z,2.90
2019-05-25T10:40:48.261Z,2.75
2019-05-25T10:43:15.029Z,2.72
2019-05-25T10:45:41.718Z,2.90
2019-05-25T10:48:08.570Z,2.98
2019-05-25T10:50:35.325Z,2.87
2019-05-25T10:53:02.177Z,3.12
2019-05-25T10:55:29.132Z,2.90
2019-05-25T10:57:55.921Z,2.67
2019-05-25T11:00:22.927Z,2.80
2019-05-25T11:02:50.023Z,3.22
2019-05-25T11:05:17.409Z,3.00
2019-05-25T11:07:44.130Z,3.35
2019-05-25T11:10:12.099Z,3.20
2019-05-25T11:12:38.803Z,3.10
2019-05-25T11:15:06.483Z,3.22
2019-05-25T11:17:33.174Z,3.77
2019-05-25T11:20:01.145Z,3.80
2019-05-25T11:22:28.018Z,3.30
2019-05-25T11:24:54.708Z,4.12
2019-05-25T11:27:21.353Z,3.30
2019-05-25T11:29:48.198Z,3.40
2019-05-25T11:32:15.007Z,3.10
2019-05-25T11:34:41.682Z,3.80
2019-05-25T11:37:08.498Z,3.30
2019-05-25T11:39:35.370Z,3.27
2019-05-25T11:42:02.174Z,2.52
2019-05-25T11:44:28.999Z,3.40
2019-05-25T11:46:55.823Z,3.00
2019-05-25T11:49:23.136Z,3.37
2019-05-25T11:51:50.127Z,3.50
2019-05-25T11:54:16.847Z,3.55
2019-05-25T11:56:43.526Z,3.65
2019-05-25T11:59:10.309Z,3.30
2019-05-25T12:01:38.124Z,3.33
2019-05-25T12:04:04.825Z,3.75
2019-05-25T12:06:31.659Z,4.25
2019-05-25T12:08:58.374Z,4.17
2019-05-25T12:11:25.414Z,4.47
2019-05-25T12:13:52.276Z,5.22
2019-05-25T12:16:19.103Z,6.75
2019-05-25T12:18:46.266Z,6.50
2019-05-25T12:21:13.162Z,5.42
2019-05-25T12:23:39.928Z,5.50
2019-05-25T12:26:06.711Z,5.58
2019-05-25T12:28:33.495Z,4.87
2019-05-25T12:31:00.195Z,5.50
2019-05-25T12:33:26.903Z,6.25
2019-05-25T12:35:54.001Z,5.60
2019-05-25T12:38:20.705Z,4.53
2019-05-25T12:40:53.463Z,4.53
2019-05-25T12:43:17.453Z,4.15
2019-05-25T12:45:44.876Z,4.12
2019-05-25T12:48:11.865Z,3.50
2019-05-25T12:50:38.620Z,5.75
2019-05-25T12:53:05.348Z,6.08
2019-05-25T12:55:32.175Z,4.97
2019-05-25T12:57:58.989Z,3.70
2019-05-25T13:00:25.704Z,3.70
2019-05-25T13:02:52.722Z,3.42
2019-05-25T13:05:32.882Z,3.40
2019-05-25T13:07:48.350Z,3.10
2019-05-25T13:10:15.247Z,3.65
2019-05-25T13:12:41.935Z,2.75
2019-05-25T13:15:08.711Z,3.30
2019-05-25T13:17:35.757Z,3.67
2019-05-25T13:20:05.227Z,3.02
2019-05-25T13:22:31.961Z,3.47
2019-05-25T13:24:58.796Z,3.70
2019-05-25T13:27:25.531Z,3.60
2019-05-25T13:29:52.280Z,4.00
2019-05-25T13:32:19.068Z,3.95
2019-05-25T13:34:46.901Z,3.80
2019-05-25T13:37:13.860Z,3.58
2019-05-25T13:39:40.556Z,3.50
2019-05-25T13:42:07.261Z,4.00
2019-05-25T13:44:34.144Z,4.00
2019-05-25T13:47:00.913Z,3.92
2019-05-25T13:49:27.751Z,3.60
2019-05-25T13:51:54.473Z,3.70
2019-05-25T13:54:21.240Z,3.52
2019-05-25T13:56:47.907Z,3.75
2019-05-25T13:59:14.588Z,3.65
2019-05-25T14:01:41.352Z,4.00
2019-05-25T14:04:08.139Z,3.72
2019-05-25T14:06:34.819Z,3.55
2019-05-25T14:09:01.510Z,3.98
2019-05-25T14:11:29.864Z,3.95
2019-05-25T14:13:56.709Z,3.55
2019-05-25T14:16:23.413Z,3.60
2019-05-25T14:18:50.215Z,3.65
2019-05-25T14:21:16.876Z,3.80
2019-05-25T14:23:43.743Z,3.72
2019-05-25T14:26:10.452Z,3.75
2019-05-25T14:28:37.223Z,3.77
2019-05-25T14:31:04.030Z,3.37
2019-05-25T14:33:30.757Z,3.90
2019-05-25T14:35:57.523Z,3.45
2019-05-25T14:38:24.412Z,3.67
2019-05-25T14:40:51.174Z,3.45
2019-05-25T14:43:17.876Z,3.77
2019-05-25T14:45:44.640Z,3.75
2019-05-25T14:48:11.403Z,3.83
2019-05-25T14:50:38.102Z,5.65
2019-05-25T14:53:04.859Z,4.05
2019-05-25T14:55:31.635Z,8.58
2019-05-25T14:57:58.361Z,3.85
2019-05-25T15:00:25.249Z,3.72
2019-05-25T15:02:51.971Z,4.58
2019-05-25T15:05:18.755Z,5.90
2019-05-25T15:07:45.572Z,5.03
2019-05-25T15:10:13.013Z,4.10
2019-05-25T15:12:39.727Z,4.37
2019-05-25T15:15:07.408Z,4.03
2019-05-25T15:17:37.143Z,9.45
2019-05-25T15:20:08.096Z,4.70
2019-05-25T15:22:34.804Z,4.45
2019-05-25T15:25:05.241Z,4.70
2019-05-25T15:27:32.142Z,6.15
2019-05-25T15:29:58.944Z,7.62
2019-05-25T15:32:25.723Z,23.87
2019-05-25T15:34:52.482Z,5.60
2019-05-25T15:37:19.165Z,5.50
2019-05-25T15:39:45.959Z,5.60
2019-05-25T15:42:12.778Z,5.65
2019-05-25T15:44:39.516Z,6.62
2019-05-25T15:47:06.200Z,5.10
2019-05-25T15:49:33.859Z,6.08
2019-05-25T15:52:00.754Z,5.83
2019-05-25T15:54:27.549Z,6.45
2019-05-25T15:56:54.324Z,6.50
2019-05-25T15:59:23.472Z,6.40
2019-05-25T16:01:51.035Z,6.78
2019-05-25T16:04:17.959Z,6.47
2019-05-25T16:06:44.953Z,7.05
2019-05-25T16:09:12.841Z,6.85
2019-05-25T16:11:39.741Z,6.95
2019-05-25T16:14:07.951Z,6.80
2019-05-25T16:16:34.990Z,6.35
2019-05-25T16:19:01.925Z,6.03
2019-05-25T16:21:28.708Z,6.47
2019-05-25T16:23:55.494Z,6.58
2019-05-25T16:26:22.282Z,6.42
2019-05-25T16:28:49.202Z,6.08
2019-05-25T16:31:15.993Z,6.45
2019-05-25T16:33:42.769Z,6.33
2019-05-25T16:36:09.530Z,6.62
2019-05-25T16:38:36.198Z,7.17
2019-05-25T16:41:03.425Z,7.28
2019-05-25T16:43:30.087Z,7.40
2019-05-25T16:45:56.974Z,6.55
2019-05-25T16:48:23.737Z,6.62
2019-05-25T16:50:50.413Z,6.83
2019-05-25T16:53:17.286Z,7.15
2019-05-25T16:55:44.038Z,7.55
2019-05-25T16:58:10.830Z,6.70
2019-05-25T17:00:39.344Z,7.10
2019-05-25T17:03:07.279Z,6.80
2019-05-25T17:05:34.064Z,7.28
2019-05-25T17:08:00.950Z,7.00
2019-05-25T17:10:27.873Z,6.95
2019-05-25T17:12:54.701Z,7.03
2019-05-25T17:15:21.501Z,7.17
2019-05-25T17:17:49.391Z,7.20
2019-05-25T17:20:16.497Z,7.03
2019-05-25T17:22:44.214Z,6.80
2019-05-25T17:25:11.388Z,7.40
2019-05-25T17:27:38.167Z,7.37
2019-05-25T17:30:07.118Z,7.28
2019-05-25T17:32:33.986Z,7.25
2019-05-25T17:35:00.860Z,7.80
2019-05-25T17:37:27.717Z,7.75
2019-05-25T17:39:54.455Z,7.72
2019-05-25T17:42:21.278Z,7.90
2019-05-25T17:44:48.153Z,8.25
2019-05-25T17:47:14.944Z,7.58
2019-05-25T17:49:41.685Z,8.23
2019-05-25T17:52:08.504Z,8.70
2019-05-25T17:54:35.285Z,8.80
2019-05-25T17:57:02.251Z,9.05
2019-05-25T17:59:29.021Z,8.65
2019-05-25T18:01:56.860Z,7.90
2019-05-25T18:04:23.804Z,8.23
2019-05-25T18:06:50.536Z,9.80
2019-05-25T18:09:17.511Z,8.40
2019-05-25T18:11:44.433Z,9.55
2019-05-25T18:14:11.180Z,9.43
2019-05-25T18:16:37.944Z,10.32
2019-05-25T18:19:04.937Z,9.93
2019-05-25T18:21:31.625Z,10.38
2019-05-25T18:23:58.441Z,9.38
2019-05-25T18:26:25.255Z,8.88
2019-05-25T18:28:53.119Z,9.03
2019-05-25T18:31:20.811Z,8.45
2019-05-25T18:33:47.571Z,9.03
2019-05-25T18:36:14.473Z,8.85
2019-05-25T18:38:41.260Z,9.20
2019-05-25T18:41:08.033Z,8.83
2019-05-25T18:43:34.794Z,9.85
2019-05-25T18:46:02.696Z,9.58
2019-05-25T18:48:29.438Z,9.90
2019-05-25T18:50:56.129Z,10.28
2019-05-25T18:53:22.795Z,10.20
2019-05-25T18:55:49.600Z,10.80
2019-05-25T18:58:16.387Z,11.35
2019-05-25T19:00:43.122Z,10.00
2019-05-25T19:03:09.849Z,10.88
2019-05-25T19:05:36.622Z,10.75
2019-05-25T19:08:03.649Z,11.38
2019-05-25T19:10:30.472Z,10.15
2019-05-25T19:12:58.219Z,10.28
2019-05-25T19:15:25.098Z,9.95
2019-05-25T19:17:51.809Z,10.00
2019-05-25T19:20:21.171Z,9.85
2019-05-25T19:22:48.104Z,9.90
2019-05-25T19:25:15.310Z,9.80
2019-05-25T19:27:42.084Z,9.58
2019-05-25T19:30:10.182Z,8.65
2019-05-25T19:32:37.022Z,9.18
2019-05-25T19:35:04.874Z,9.63
2019-05-25T19:37:31.736Z,10.08
2019-05-25T19:39:59.072Z,9.10
2019-05-25T19:42:25.746Z,9.33
2019-05-25T19:44:52.529Z,9.43
2019-05-25T19:47:19.209Z,8.78
2019-05-25T19:49:45.947Z,9.18
2019-05-25T19:52:12.770Z,8.38
2019-05-25T19:54:39.506Z,9.75
2019-05-25T19:57:06.275Z,9.45
2019-05-25T19:59:33.196Z,9.95
2019-05-25T20:02:00.076Z,10.32
2019-05-25T20:04:26.753Z,9.63
2019-05-25T20:06:53.569Z,10.50
2019-05-25T20:09:20.357Z,9.85
2019-05-25T20:11:47.171Z,9.88
2019-05-25T20:14:13.929Z,10.03
2019-05-25T20:16:40.605Z,10.05
2019-05-25T20:19:07.374Z,9.95
2019-05-25T20:21:34.255Z,9.65
2019-05-25T20:24:01.030Z,10.35
2019-05-25T20:26:27.765Z,9.75
2019-05-25T20:28:54.519Z,9.25
2019-05-25T20:31:21.205Z,9.93
2019-05-25T20:33:48.013Z,10.28
2019-05-25T20:36:14.787Z,9.48
2019-05-25T20:38:41.575Z,10.50
2019-05-25T20:41:08.249Z,9.45
2019-05-25T20:43:35.214Z,10.00
2019-05-25T20:46:01.910Z,9.93
2019-05-25T20:48:31.967Z,10.32
2019-05-25T20:50:58.809Z,9.98
2019-05-25T20:53:25.517Z,10.40
2019-05-25T20:55:52.236Z,10.72
2019-05-25T20:58:19.005Z,13.48
2019-05-25T21:00:45.786Z,11.35
2019-05-25T21:03:12.598Z,11.10
2019-05-25T21:05:49.808Z,10.80
2019-05-25T21:08:08.118Z,10.30
2019-05-25T21:10:34.983Z,11.48
2019-05-25T21:13:01.825Z,10.93
2019-05-25T21:15:28.600Z,10.30
2019-05-25T21:17:55.308Z,11.15
2019-05-25T21:20:22.385Z,10.45
2019-05-25T21:22:49.081Z,9.73
2019-05-25T21:25:15.991Z,10.48
2019-05-25T21:27:42.837Z,10.90
2019-05-25T21:30:09.821Z,10.72
2019-05-25T21:32:36.588Z,9.98
2019-05-25T21:35:04.960Z,10.95
2019-05-25T21:37:31.662Z,10.78
2019-05-25T21:39:58.401Z,10.78
2019-05-25T21:42:25.260Z,10.85
2019-05-25T21:44:51.952Z,11.30
2019-05-25T21:47:18.726Z,10.38
2019-05-25T21:49:45.484Z,10.70
2019-05-25T21:52:12.183Z,11.10
2019-05-25T21:54:38.874Z,10.65
2019-05-25T21:57:05.661Z,11.03
2019-05-25T21:59:32.828Z,11.35
2019-05-25T22:01:59.760Z,11.18
2019-05-25T22:04:26.511Z,10.98
2019-05-25T22:06:53.312Z,11.35
2019-05-25T22:09:20.026Z,10.72
2019-05-25T22:11:46.921Z,10.85
2019-05-25T22:14:13.665Z,11.25
2019-05-25T22:16:40.365Z,10.65
2019-05-25T22:19:07.381Z,10.75
2019-05-25T22:21:34.265Z,10.80
2019-05-25T22:24:01.027Z,10.58
2019-05-25T22:26:27.907Z,11.43
2019-05-25T22:28:54.681Z,10.68
2019-05-25T22:31:21.472Z,11.28
2019-05-25T22:33:48.192Z,10.90
2019-05-25T22:36:14.983Z,10.82
2019-05-25T22:38:41.770Z,10.30
2019-05-25T22:41:08.608Z,11.03
2019-05-25T22:43:35.399Z,10.40
2019-05-25T22:46:02.096Z,11.10
2019-05-25T22:48:28.882Z,10.93
2019-05-25T22:50:55.657Z,10.40
2019-05-25T22:53:22.661Z,10.72
2019-05-25T22:55:49.488Z,11.08
2019-05-25T22:58:16.182Z,11.00
2019-05-25T23:00:42.908Z,10.53
2019-05-25T23:03:09.775Z,11.18
2019-05-25T23:05:36.541Z,10.03
2019-05-25T23:08:03.454Z,10.35
2019-05-25T23:10:30.280Z,10.60
2019-05-25T23:12:57.048Z,10.85
2019-05-25T23:15:23.746Z,10.68
2019-05-25T23:17:50.578Z,11.22
2019-05-25T23:20:17.744Z,11.45
2019-05-25T23:22:45.781Z,10.90
2019-05-25T23:25:13.190Z,10.35
2019-05-25T23:27:39.884Z,11.18
2019-05-25T23:30:06.995Z,10.82
2019-05-25T23:32:34.348Z,10.80
2019-05-25T23:35:01.122Z,10.35
2019-05-25T23:37:27.960Z,11.00
2019-05-25T23:39:54.639Z,10.78
2019-05-25T23:42:21.392Z,10.25
2019-05-25T23:44:48.200Z,10.03
2019-05-25T23:47:14.906Z,9.98
2019-05-25T23:49:41.824Z,10.80
2019-05-25T23:52:08.626Z,11.00
2019-05-25T23:54:35.558Z,10.70
2019-05-25T23:57:02.860Z,10.70
2019-05-25T23:59:29.605Z,10.48
